Weather observations for the past three days for
Litchfield Municipal Airport
Imperial (Metric)
Date Time (cdt) Wind (mph) Vis. (mi.) Weather Sky Cond. Temperature (ºF) Relative Humidity Wind Chill (°F) Heat Index (°F) Pressure Precipitation (in)
Air Dwpt 6 hour altimeter (in) sea level (mb) 1 hr 3 hr 6 hr
Max. Min.
02 18:15 NW 5 10.00 Partly Cloudy SCT080 55.8 32 41% 30.1 0.0
02 17:55 N 6 10.00 Partly Cloudy SCT080 53.8 31.6 43% 30.1 0.0
02 17:35 NW 6 10.00 Mostly Cloudy BKN080 56.1 32 40% 30.1 0.0
02 17:15 NE 3 10.00 Mostly Cloudy BKN080 55.2 30.4 39% 30.1 0.0
02 16:55 N 7 10.00 Mostly Cloudy SCT060 BKN090 55 32.2 42% 30.1 0.0
02 16:35 N 8 10.00 Overcast SCT070 OVC090 56.5 32.5 40% 30.1 0.0
02 16:15 NW 12 10.00 Overcast OVC090 57.6 32.4 39% 30.1 0.0
02 15:55 NW 12 G 16 10.00 Overcast OVC090 55.4 31.8 41% 30.11 0.0
02 15:35 N 10 G 17 10.00 Mostly Cloudy SCT060 SCT075 BKN090 55.4 30.4 39% 30.11 0.0
02 15:15 N 9 10.00 Mostly Cloudy SCT075 BKN090 57.2 31.6 38% 30.11 0.0
02 14:55 N 7 10.00 Overcast SCT075 OVC090 55.4 32 41% 30.12 0.0
02 14:35 NW 10 G 17 10.00 Mostly Cloudy SCT065 BKN090 55.4 30.2 38% 30.12 0.0
02 14:15 NW 10 10.00 Mostly Cloudy SCT065 BKN090 56.1 30.7 38% 30.12 0.0
02 13:55 N 9 G 17 10.00 Mostly Cloudy SCT065 BKN090 57 31.6 38% 30.12 0.0
02 13:35 N 13 G 20 10.00 Partly Cloudy SCT080 57.2 32 39% 30.12 0.0
02 13:15 N 10 G 17 10.00 Partly Cloudy SCT055 SCT075 SCT080 56.7 33.1 41% 30.12 0.0
02 12:55 N 12 G 16 10.00 Mostly Cloudy SCT047 SCT055 BKN075 54.1 31.3 55.9 45.5 42% 30.13 0.0
02 12:35 N 14 G 17 10.00 Partly Cloudy SCT049 SCT055 SCT080 55.8 34.9 46% 30.13 0.0
02 12:15 N 14 10.00 Partly Cloudy SCT049 SCT065 SCT075 54.7 34.5 47% 30.14 0.0
02 11:55 NE 9 10.00 Partly Cloudy SCT065 54.1 37.2 53% 30.14 0.0
02 11:35 N 8 G 16 10.00 Fair CLR 53.6 37.6 55% 30.14 0.0
02 11:15 N 9 10.00 Partly Cloudy SCT090 52.7 39.9 62% 30.14 0.0
02 10:55 NE 9 10.00 Overcast OVC090 50.5 39.4 66% 30.14 0.0
02 10:35 N 8 10.00 Overcast OVC090 50.2 40.5 69% 30.14 0.0
02 10:15 NE 8 10.00 Overcast SCT060 SCT070 OVC090 49.5 40.5 71% 47 30.14 0.0
02 09:55 N 9 10.00 Overcast BKN060 BKN070 OVC100 49.3 40.1 71% 46 30.13 0.0
02 09:35 NE 5 10.00 Overcast OVC100 49.6 40.6 71% 48 30.13 0.0
02 09:15 NE 9 10.00 Mostly Cloudy BKN100 48.6 40.6 74% 45 30.12 0.0
02 08:55 NE 8 10.00 Partly Cloudy SCT100 48 40.1 74% 45 30.12 0.0
02 08:35 NE 9 10.00 Partly Cloudy SCT100 47.5 40.6 77% 44 30.11 0.0
02 08:15 NE 8 10.00 Mostly Cloudy BKN100 47.1 40.6 78% 44 30.11 0.0
02 07:55 NE 7 10.00 Overcast OVC100 47.8 42.3 81% 45 30.1 0.0
02 07:35 NE 9 10.00 Overcast OVC100 46.9 41.5 82% 43 30.1 0.0
02 07:15 NE 7 10.00 Mostly Cloudy BKN100 45.9 40.6 82% 43 30.09 0.0
02 06:55 NE 8 10.00 Overcast OVC100 45.5 40.3 49.1 44.6 82% 42 30.09 0.0
02 06:35 NE 7 10.00 Overcast OVC100 45 40.5 84% 42 30.08 0.0
02 06:15 NE 7 10.00 Overcast OVC100 45 40.1 83% 42 30.07 0.0
02 05:55 NE 7 10.00 Overcast SCT065 OVC100 45.1 40.8 85% 42 30.07 0.0
02 05:35 NE 6 10.00 Overcast SCT065 OVC100 45.1 41 86% 43 30.07 0.0
02 05:15 NE 7 10.00 Overcast SCT055 OVC110 45.5 40.6 83% 42 30.06 0.0
02 04:55 Calm 10.00 Overcast BKN055 OVC100 45.7 41 84% 30.06 0.0
02 04:35 Calm 10.00 Overcast SCT055 OVC110 45.5 41 84% 30.07 0.0
02 04:15 E 3 10.00 Overcast OVC100 45.9 41 83% 30.06 0.0
02 03:55 E 5 10.00 Overcast OVC100 45.9 41.2 84% 44 30.06 0.0
02 03:35 E 6 10.00 Mostly Cloudy BKN100 46.2 41.2 83% 44 30.06 0.0
02 03:15 E 5 10.00 Mostly Cloudy BKN090 45.9 41.4 84% 44 30.06 0.0
02 02:55 E 3 10.00 Mostly Cloudy SCT090 BKN110 46.6 41 81% 30.06 0.0
02 02:35 E 6 10.00 Mostly Cloudy BKN110 46.4 39.9 78% 44 30.06 0.0
02 02:15 E 6 10.00 Partly Cloudy SCT110 46.4 39.6 77% 44 30.06 0.0
02 01:35 Calm 10.00 Overcast OVC110 47.5 40.8 78% 30.06 0.0
02 01:15 Calm 10.00 Overcast OVC100 48.4 41.9 78% 30.07 0.0
02 00:55 Calm 10.00 Overcast SCT046 SCT049 OVC090 49.1 41.5 56.3 49.1 75% 30.07 0.0
02 00:35 Calm 10.00 Light Rain SCT050 BKN060 OVC090 50.2 39.6 67% 30.08 0.0
02 00:15 N 6 10.00 Overcast SCT060 OVC090 49.3 38.7 67% 47 30.07 0.0
01 23:55 Calm 10.00 Overcast SCT060 BKN075 OVC110 50.5 40.5 69% 30.08 0.0
01 23:35 Calm 10.00 Overcast OVC110 50.2 37.8 63% 30.07 0.0
01 23:15 E 5 10.00 Overcast SCT070 OVC100 50.2 38.5 64% 30.07 0.0
01 22:55 Calm 10.00 Overcast OVC080 50.9 38.5 63% 30.08 0.0
01 22:35 E 3 10.00 Overcast BKN075 OVC100 51.1 37.9 61% 30.08 0.0
01 22:15 E 3 10.00 Overcast BKN075 OVC090 51.4 37.6 59% 30.07 0.0
01 21:55 NE 5 10.00 Overcast BKN075 OVC100 51.8 36 55% 30.07 0.0
01 21:35 NE 6 10.00 Overcast BKN075 OVC100 52.3 35.1 52% 30.06 0.0
01 21:15 NE 7 10.00 Overcast SCT075 OVC085 52.7 35.2 52% 30.06 0.0
01 20:55 NE 8 10.00 Overcast SCT075 BKN085 OVC120 53.4 34.2 48% 30.05 0.0
01 20:35 N 8 10.00 Overcast BKN075 OVC085 53.2 35.4 51% 30.04 0.0
01 20:15 N 7 10.00 Overcast OVC080 53.8 36.3 52% 30.03 0.0
01 19:55 N 6 10.00 Overcast OVC090 53.6 36.3 52% 30.03 0.0
01 19:35 N 7 10.00 Overcast OVC090 54.3 34.2 47% 30.02 0.0
01 19:15 NW 9 10.00 Mostly Cloudy BKN085 54.9 34.3 46% 30.02 0.0
01 18:55 Calm 10.00 Mostly Cloudy SCT070 BKN085 56.3 32.9 58.5 55 41% 30.01 0.0
01 18:35 N 5 10.00 Overcast BKN070 OVC085 55.9 34.5 45% 30.01 0.0
01 18:15 NW 5 10.00 Overcast SCT070 OVC085 57.2 34.3 42% 30.01 0.0
01 17:55 Calm 10.00 Mostly Cloudy BKN070 BKN080 57 30.7 37% 30.01 0.0
01 17:35 NW 5 10.00 Fair CLR 57.4 32.2 39% 30.02 0.0
01 17:15 W 6 10.00 Partly Cloudy SCT110 58.1 32 37% 30.03 0.0
01 16:55 SW 8 10.00 Mostly Cloudy SCT090 BKN110 57.6 33.1 40% 30.03 0.0
01 16:35 W 6 10.00 Mostly Cloudy SCT080 BKN110 57.6 33.6 41% 30.04 0.0
01 16:15 W 7 10.00 Mostly Cloudy SCT070 SCT090 BKN110 57.2 33.8 41% 30.05 0.0
01 15:55 W 7 10.00 Mostly Cloudy BKN110 57.7 33.4 40% 30.06 0.0
01 15:35 W 8 10.00 Partly Cloudy SCT100 57 31.5 38% 30.06 0.0
01 15:15 W 6 10.00 Mostly Cloudy SCT065 BKN090 56.3 32.7 41% 30.07 0.0
01 14:55 W 5 10.00 Overcast SCT075 OVC090 56.8 32.7 40% 30.07 0.0
01 14:35 W 6 10.00 Mostly Cloudy SCT070 BKN090 55.6 32.9 42% 30.07 0.0
01 14:15 W 7 10.00 Mostly Cloudy SCT055 SCT080 BKN090 55.6 33.4 43% 30.08 0.0
01 13:55 NW 8 10.00 Mostly Cloudy BKN065 BKN070 BKN090 56.1 34.3 44% 30.08 0.0
01 13:35 NW 8 10.00 Partly Cloudy SCT065 55.8 34.2 44% 30.08 0.0
01 13:15 NW 9 G 17 10.00 Partly Cloudy SCT050 SCT065 56.5 35.4 45% 30.08 0.0
01 12:55 NW 7 G 16 10.00 Partly Cloudy SCT050 55.9 34.5 55.9 42.3 45% 30.08 0.0
01 12:35 NW 14 G 18 10.00 Fair CLR 54.9 34.9 47% 30.09 0.0
01 12:15 NW 9 G 18 10.00 Fair CLR 54.7 33.8 45% 30.09 0.0
01 11:55 NW 13 G 18 10.00 Fair CLR 54.5 34.5 47% 30.09 0.0
01 11:35 NW 8 G 17 10.00 Fair CLR 54 34.2 47% 30.09 0.0
01 11:15 NW 8 10.00 Fair CLR 53.1 34 48% 30.09 0.0
01 10:55 N 9 G 16 10.00 Fair CLR 52.7 34 49% 30.1 0.0
01 10:35 N 12 10.00 Fair CLR 52.3 34.5 51% 30.1 0.0
01 10:15 NW 13 G 17 10.00 Fair CLR 51.4 33.4 50% 30.09 0.0
01 09:55 NW 13 G 17 10.00 Fair CLR 51.1 35.1 54% 30.09 0.0
01 09:35 N 12 10.00 Fair CLR 49.6 35.4 58% 46 30.08 0.0
01 09:15 N 9 G 17 10.00 Fair CLR 49.1 36.1 61% 46 30.07 0.0
01 08:55 N 15 10.00 Fair CLR 48.6 35.4 61% 43 30.07 0.0
01 08:35 NW 12 10.00 Fair CLR 47.3 35.4 64% 43 30.07 0.0
01 08:15 NW 12 10.00 Fair CLR 46 34 63% 41 30.07 0.0
01 07:55 NW 10 10.00 Fair CLR 45.5 32.5 61% 41 30.07 0.0
01 07:35 NW 9 10.00 Fair CLR 44.6 34 66% 40 30.07 0.0
01 07:15 W 10 10.00 Fair CLR 43.2 34.7 72% 38 30.06 0.0
01 06:55 W 9 10.00 Fair CLR 42.1 34.9 50.9 41.2 76% 37 30.05 0.0
01 06:35 W 8 10.00 Fair CLR 41.5 34.9 77% 37 30.05 0.0
01 06:15 W 7 10.00 Fair CLR 41.4 34.7 77% 37 30.04 0.0
01 05:55 NW 8 10.00 Fair CLR 42.1 34.7 75% 38 30.03 0.0
01 05:35 NW 8 10.00 Fair CLR 42.4 35.2 76% 38 30.03 0.0
01 05:15 NW 8 10.00 Fair CLR 43 35.8 76% 39 30.03 0.0
01 04:55 NW 9 10.00 Fair CLR 43.9 36.3 75% 39 30.03 0.0
01 04:35 NW 9 10.00 Fair CLR 44.6 36.9 74% 40 30.03 0.0
01 04:15 NW 9 10.00 Fair CLR 45.3 37.2 73% 41 30.03 0.0
01 03:55 NW 12 G 16 10.00 Fair CLR 46 37.9 73% 41 30.03 0.0
01 03:35 NW 13 10.00 Fair CLR 46.8 38.8 74% 42 30.02 0.0
01 03:15 NW 10 10.00 Partly Cloudy SCT090 47.1 41 79% 43 30.02 0.0
01 02:55 NW 9 10.00 Partly Cloudy SCT090 47.8 42.3 81% 44 30.01 0.0
01 02:35 NW 9 10.00 Mostly Cloudy BKN080 BKN100 48.7 44.1 84% 45 30.02 0.0
01 02:15 W 9 10.00 Overcast OVC080 50 45.5 85% 47 30.02 0.0
01 01:55 W 7 10.00 Light Drizzle OVC070 50 46.9 89% 48 30.02 0.0
01 01:35 W 7 10.00 Light Rain OVC060 50.4 47.3 89% 30.02 0.0
01 01:15 NW 8 10.00 Light Rain OVC060 50.9 46.8 86% 30.02 0.0
01 00:55 NW 9 10.00 Overcast OVC050 50.9 47.1 59.2 50.9 87% 30.01 0.0 0.02 0.02
01 00:35 NW 9 10.00 Light Rain OVC048 50.9 47.7 89% 30.01 0.0 0.02
01 00:15 NW 9 10.00 Light Rain SCT043 BKN049 OVC055 51.4 47.1 85% 30.01 0.0
30 23:55 NW 7 10.00 Overcast SCT048 OVC055 51.3 47.8 88% 30.01 0.0
30 23:35 W 7 10.00 Light Rain BKN048 OVC055 51.4 47.5 86% 30 0.0
30 23:15 W 5 10.00 Overcast BKN048 OVC060 51.8 46.9 84% 30 0.0
30 22:55 W 5 10.00 Overcast BKN060 OVC070 51.6 46.8 84% 30 0.0
30 22:35 Calm 10.00 Light Rain OVC060 52 46.4 81% 30 0.0
30 22:15 Calm 10.00 Overcast OVC070 52.3 45.9 79% 30.01 0.0
30 21:55 N 5 10.00 Overcast OVC070 52.5 46.4 80% 30 0.0
30 21:35 NW 8 10.00 Overcast BKN070 OVC085 53.6 44.6 72% 30 0.0
30 21:15 NW 9 10.00 Overcast BKN070 OVC090 53.8 44.2 70% 29.99 0.0
30 20:55 S 7 10.00 Light Rain OVC070 56.7 46.4 69% 29.98 0.0
30 20:35 Calm 10.00 Overcast OVC080 56.5 47.1 71% 29.97 0.0
30 20:15 Calm 10.00 Overcast OVC080 56.5 46.2 69% 29.96 0.0
30 19:55 Calm 10.00 Overcast OVC080 57.2 46.6 68% 29.97 0.0
30 19:35 Calm 10.00 Overcast OVC080 57.4 46.2 67% 29.97 0.0
30 19:15 S 7 10.00 Overcast OVC090 58.5 41.9 54% 29.97 0.0
30 18:55 S 8 10.00 Overcast BKN090 OVC110 59.2 41.5 62.4 59.2 52% 29.96 0.0
30 18:35 S 8 10.00 Overcast OVC100 59.9 39.6 47% 29.96 0.0
30 18:15 S 12 10.00 Mostly Cloudy BKN110 60.6 39 45% 29.97 0.0
30 17:55 S 12 10.00 Mostly Cloudy BKN120 61.3 37.4 41% 29.97 0.0
30 17:35 SW 8 10.00 Fair CLR 61.9 37.8 41% 29.97 0.0
30 17:15 S 14 10.00 Partly Cloudy SCT100 62.1 37 40% 29.97 0.0
30 16:55 S 9 10.00 Mostly Cloudy BKN100 61.9 36.3 39% 29.99 0.0
30 16:35 SW 9 10.00 Overcast SCT070 OVC100 60.8 35.6 39% 30 0.0
30 16:15 S 6 10.00 Overcast BKN070 BKN090 OVC110 61 34.7 37% 30 0.0
30 15:55 S 7 10.00 Overcast BKN070 BKN080 OVC110 60.6 34.2 37% 30.01 0.0
30 15:35 S 7 10.00 Overcast BKN070 OVC090 60.8 35.4 39% 30.02 0.0
30 15:15 SW 7 10.00 Overcast SCT070 OVC090 61.2 35.1 38% 30.03 0.0
30 14:55 S 6 10.00 Mostly Cloudy BKN070 BKN080 60.8 34 37% 30.03 0.0
30 14:35 SW 3 10.00 Partly Cloudy SCT070 SCT080 61.2 32.9 35% 30.04 0.0
30 14:15 SW 9 10.00 Mostly Cloudy SCT070 BKN100 61.2 33.6 36% 30.05 0.0
30 13:55 Calm 10.00 Mostly Cloudy BKN100 61.3 33.4 35% 30.05 0.0
30 13:35 W 9 10.00 Partly Cloudy SCT100 61.2 34.2 36% 30.06 0.0
30 13:15 W 6 10.00 Fair CLR 59.9 31.1 34% 30.07 0.0
30 12:55 W 5 10.00 Fair CLR 59.9 33.4 59.9 41.4 37% 30.08 0.0
30 12:35 Calm 10.00 Fair CLR 59.4 32.9 37% 30.08 0.0
30 12:15 Calm 10.00 Fair CLR 58.8 31.3 35% 30.09 0.0
30 11:55 W 6 10.00 Fair CLR 58.3 30.9 35% 30.09 0.0
30 11:35 SW 6 10.00 Fair CLR 58.3 34.2 40% 30.09 0.0
30 11:15 S 5 10.00 Fair CLR 57.4 34.2 42% 30.09 0.0
30 10:55 S 6 10.00 Fair CLR 56.7 34.2 43% 30.09 0.0
30 10:35 S 3 10.00 Fair CLR 55.9 32.7 42% 30.1 0.0
30 10:15 SW 5 10.00 Fair CLR 55.4 33.1 43% 30.09 0.0
30 09:55 Calm 10.00 Fair CLR 54.7 34.5 47% 30.09 0.0
30 09:35 Calm 10.00 Fair CLR 53.4 36.7 53% 30.09 0.0
30 09:15 Calm 10.00 Fair CLR 52.3 38.7 60% 30.1 0.0
30 08:55 Calm 10.00 Fair CLR 51.3 37.4 59% 30.1 0.0
30 08:35 Calm 10.00 Fair CLR 49.5 39.2 68% 30.1 0.0
30 08:15 Calm 10.00 Fair CLR 47.3 39 73% 30.1 0.0
30 07:55 Calm 10.00 Fair CLR 45.9 40.1 80% 30.1 0.0
30 07:35 Calm 10.00 Fair CLR 44.2 38.8 81% 30.1 0.0
30 07:15 Calm 10.00 Fair CLR 42.8 39.2 87% 30.1 0.0
30 06:55 Calm 10.00 Fair CLR 41.2 39.4 45.1 39 93% 30.1 0.0
30 06:35 Calm 10.00 Fair CLR 39.6 38.3 95% 30.09 0.0
30 06:15 Calm 10.00 Fair CLR 39.6 36.9 90% 30.09 0.0
30 05:55 Calm 10.00 Fair CLR 39.7 37.4 91% 30.08 0.0
30 05:35 Calm 10.00 Fair CLR 39.4 37.4 93% 30.07 0.0
30 05:15 Calm 10.00 Fair CLR 40.5 38.1 91% 30.08 0.0
30 04:55 Calm 10.00 Fair CLR 40.6 37.4 88% 30.08 0.0
30 04:35 Calm 10.00 Fair CLR 39.7 36 86% 30.07 0.0
30 04:15 Calm 10.00 Fair CLR 40.6 38.3 91% 30.07 0.0
30 03:55 Calm 10.00 Fair CLR 40.6 37.4 88% 30.08 0.0
30 03:35 Calm 10.00 Fair CLR 40.5 37 88% 30.08 0.0
30 03:15 Calm 10.00 Fair CLR 41.4 37.6 86% 30.08 0.0
30 02:55 Calm 10.00 Fair CLR 42.1 37.8 85% 30.08 0.0
30 02:35 Calm 10.00 Fair CLR 41.4 37.2 85% 30.08 0.0
30 02:15 NW 3 10.00 Fair CLR 41.9 37.4 84% 30.08 0.0
30 01:55 NW 3 10.00 Fair CLR 42.4 38.1 85% 30.09 0.0
30 01:35 NW 5 10.00 Fair CLR 42.8 36.5 79% 41 30.09 0.0
30 01:15 NW 3 10.00 Fair CLR 44.8 36.5 73% 30.09 0.0
30 00:55 Calm 10.00 Fair CLR 44.8 37.8 55.9 44.1 76% 30.09 0.0
30 00:35 W 5 10.00 Fair CLR 44.8 38.1 78% 43 30.08 0.0
30 00:15 W 3 10.00 Fair CLR 45 38.5 78% 30.08 0.0
29 23:55 Calm 10.00 Fair CLR 45.1 39.2 80% 30.08 0.0
29 23:35 W 3 10.00 Fair CLR 46 40.3 80% 30.08 0.0
29 23:15 W 5 10.00 Fair CLR 47.3 39.7 75% 46 30.08 0.0
29 22:55 W 3 10.00 Fair CLR 47.7 40.1 75% 30.09 0.0
29 22:35 W 5 10.00 Fair CLR 46.9 40.1 77% 45 30.08 0.0
29 22:15 NW 3 10.00 Fair CLR 48.2 39.9 73% 30.08 0.0
29 21:55 NW 3 10.00 Fair CLR 48.7 40.8 74% 30.08 0.0
29 21:35 NW 3 10.00 Fair CLR 48.9 40.8 74% 30.07 0.0
29 21:15 NW 5 10.00 Fair CLR 49.3 39.6 69% 48 30.07 0.0
29 20:55 NW 7 10.00 Fair CLR 49.5 39.9 70% 47 30.06 0.0
29 20:35 NW 7 10.00 Fair CLR 50 40.1 69% 48 30.05 0.0
29 20:15 NW 7 10.00 Fair CLR 51.3 39.4 64% 30.04 0.0
29 19:55 NW 10 10.00 Fair CLR 52.5 38.7 59% 30.03 0.0
29 19:35 NW 13 10.00 Fair CLR 53.6 37.6 55% 30.03 0.0
29 19:15 NW 14 G 17 10.00 Fair CLR 54.5 37 52% 30.02 0.0
29 18:55 NW 13 10.00 Fair CLR 55.8 36.9 61.5 55.4 49% 30.02 0.0
29 18:35 NW 14 10.00 Fair CLR 56.1 37.6 50% 30.02 0.0
Date Time (cdt) Wind (mph) Vis. (mi.) Weather Sky Cond. Air Dwpt Max. Min. Relative Humidity Wind Chill (°F) Heat Index (°F) altimeter (in) sea level (mb) 1 hr 3 hr 6 hr
6 hour
Temperature (ºF) Pressure Precipitation (in)